Decoded Metar for LKCV (CASLAV in CZECH REPUBLIC) (IATA:N/A) | Meteo·Mobile Aviation Weather
aviador You're here:

LKCV Decoded Metar

CASLAV in CZECH REPUBLIC
Report Time2020-01-26 13:00:00
UTC Time2020-01-26 14:04:56
Flight Rules mvfr MVFR
Wind150° at 03 kt
W.Decomp.*RWY 14: 3.0 kt HW 0.4 kt RCW
Visibility9000 m
Phenomena:N/A
Clouds:Overcast 011 Hf
Expected CloudBase > 1,200 ft AGL from Temp-Dew spread
Ceiling1,100 ft
Temp00°C (ISA -13)
Dew Point-3°C (80% RH)
AAT-3.5°C
QNH1020 hPa
Density Alt-1,010 ft
Elevation794 ft
Report Wrong Elevation
Raw Report
LKCV 261300Z 15003KT 090V180 9000 OVC011 M00/M03 Q1020 NOSIG RMK
GRN GRN=

Extra information for LKCV:More info

Metar Taf Metar & Taf Last 4 Metars F.Rules Stats Wind Profile Meteogram Temp Stats Airport Information Weather charts Add Link Nearby VenuesMetar ALERT Operation Metar Decoded Social comments